Time;durP1;ratioP1;P1;durP2;ratioP2;P2;SDS_P1;SDS_P2;PMS_P1;PMS_P2;Temp;Humidity;BMP_temperature;BMP_pressure;BME280_temperature;BME280_humidity;BME280_pressure;Samples;Min_cycle;Max_cycle;Signal;HPM_P1;HPM_P2
2023/02/08 00:01:58;;;;;;;16.43;15.73;;;19.10;44.30;;;;;;5091381;28;21026;-60
2023/02/08 00:04:25;;;;;;;15.77;14.87;;;19.10;44.20;;;;;;5091437;28;20549;-63
2023/02/08 00:06:51;;;;;;;16.77;15.97;;;19.10;44.20;;;;;;5091481;28;20620;-61
2023/02/08 00:09:18;;;;;;;15.80;15.20;;;19.10;44.20;;;;;;5107800;28;20477;-62
2023/02/08 00:11:45;;;;;;;15.10;14.50;;;19.00;44.20;;;;;;5111613;28;20548;-64
2023/02/08 00:14:12;;;;;;;15.10;14.60;;;19.00;44.20;;;;;;5111743;28;20525;-62
2023/02/08 00:16:39;;;;;;;15.87;15.27;;;19.00;44.20;;;;;;5111798;28;20520;-63
2023/02/08 00:19:07;;;;;;;15.70;15.10;;;19.00;44.20;;;;;;5096253;28;20447;-63
2023/02/08 00:21:34;;;;;;;15.57;14.97;;;19.00;44.20;;;;;;5091109;28;20505;-60
2023/02/08 00:24:01;;;;;;;15.60;15.00;;;18.90;44.20;;;;;;5092050;28;20529;-63
2023/02/08 00:26:29;;;;;;;15.70;15.00;;;18.90;44.20;;;;;;5091831;28;20446;-61
2023/02/08 00:28:56;;;;;;;15.57;14.97;;;18.90;44.20;;;;;;5104339;28;20749;-61
2023/02/08 00:31:22;;;;;;;15.90;15.40;;;18.90;44.20;;;;;;5111517;28;21151;-62
2023/02/08 00:33:49;;;;;;;14.97;14.47;;;18.90;44.20;;;;;;5111985;28;20540;-62
2023/02/08 00:36:17;;;;;;;16.27;15.57;;;18.90;44.30;;;;;;5107077;28;20442;-63
2023/02/08 00:38:44;;;;;;;15.73;15.13;;;18.90;44.30;;;;;;5094796;28;20537;-63
2023/02/08 00:41:11;;;;;;;15.70;15.10;;;18.90;44.40;;;;;;5095668;28;20872;-63
2023/02/08 00:43:38;;;;;;;15.30;14.70;;;18.90;44.40;;;;;;5095964;28;20446;-63
2023/02/08 00:46:06;;;;;;;14.53;14.03;;;18.90;44.50;;;;;;5096145;28;20985;-63
2023/02/08 00:48:33;;;;;;;15.90;15.30;;;18.90;44.50;;;;;;5096016;28;20503;-62
2023/02/08 00:51:02;;;;;;;15.70;15.10;;;18.90;44.50;;;;;;5095293;28;20842;-63
2023/02/08 00:53:30;;;;;;;16.60;15.90;;;18.90;44.50;;;;;;5095548;28;20442;-64
2023/02/08 00:55:57;;;;;;;16.00;15.40;;;18.90;44.50;;;;;;5110622;28;20534;-62
2023/02/08 00:58:24;;;;;;;14.67;14.17;;;18.90;44.50;;;;;;5115021;28;20536;-63
2023/02/08 01:00:52;;;;;;;15.97;15.27;;;18.90;44.60;;;;;;5114678;28;20787;-63
2023/02/08 01:03:19;;;;;;;15.93;15.33;;;18.90;44.50;;;;;;5114884;28;20457;-63
2023/02/08 01:05:46;;;;;;;15.80;15.20;;;18.90;44.50;;;;;;5100689;28;20450;-63
2023/02/08 01:08:13;;;;;;;15.97;15.27;;;18.90;44.60;;;;;;5094461;28;20453;-63
2023/02/08 01:10:41;;;;;;;15.80;15.30;;;18.90;44.50;;;;;;5094024;28;20469;-63
2023/02/08 01:13:08;;;;;;;15.50;14.90;;;18.90;44.50;;;;;;5099782;28;20461;-62
2023/02/08 01:15:35;;;;;;;16.13;15.43;;;18.90;44.50;;;;;;5114670;28;20473;-63
2023/02/08 01:18:02;;;;;;;15.00;14.50;;;18.90;44.40;;;;;;5114536;28;20445;-64
2023/02/08 01:20:29;;;;;;;14.80;14.30;;;18.80;44.30;;;;;;5115394;28;20438;-63
2023/02/08 01:22:57;;;;;;;14.53;14.03;;;18.80;44.30;;;;;;5110307;28;20478;-63
2023/02/08 01:25:24;;;;;;;15.63;14.93;;;18.80;44.30;;;;;;5094048;28;20535;-63
2023/02/08 01:27:54;;;;;;;15.47;14.87;;;18.80;44.20;;;;;;5093988;28;20453;-64
2023/02/08 01:30:21;;;;;;;15.57;14.93;;;18.80;44.20;;;;;;5093678;28;20478;-63
2023/02/08 01:32:48;;;;;;;15.00;14.40;;;18.80;44.20;;;;;;5095715;28;20469;-62
2023/02/08 01:35:14;;;;;;;15.00;14.43;;;18.80;44.10;;;;;;5114384;28;20451;-62
2023/02/08 01:37:41;;;;;;;14.97;14.40;;;18.80;44.20;;;;;;5114139;28;20838;-64
2023/02/08 01:40:09;;;;;;;14.90;14.30;;;18.70;44.00;;;;;;5113954;28;20439;-64
2023/02/08 01:42:36;;;;;;;14.70;14.10;;;18.70;44.00;;;;;;5113493;28;20464;-64
2023/02/08 01:45:26;;;;;;;14.57;14.03;;;18.70;44.10;;;;;;5093655;28;20991;-62
2023/02/08 01:47:58;;;;;;;15.00;14.40;;;18.70;44.00;;;;;;5093819;28;20633;-63
2023/02/08 01:50:30;;;;;;;15.50;14.90;;;18.70;44.00;;;;;;5092478;28;20994;-62
2023/02/08 01:52:58;;;;;;;14.90;14.23;;;18.60;44.00;;;;;;5096267;28;20833;-63
2023/02/08 01:55:28;;;;;;;16.10;15.50;;;18.60;44.00;;;;;;5113959;28;20452;-64
2023/02/08 01:58:00;;;;;;;15.47;14.87;;;18.60;44.00;;;;;;5113723;28;20445;-62
2023/02/08 02:00:29;;;;;;;14.30;13.90;;;18.60;44.00;;;;;;5113554;28;20528;-63
2023/02/08 02:02:57;;;;;;;14.80;14.10;;;18.60;44.00;;;;;;5097792;28;20470;-64
2023/02/08 02:05:29;;;;;;;14.70;14.00;;;18.60;44.10;;;;;;5093173;28;20452;-64
2023/02/08 02:07:58;;;;;;;13.70;13.20;;;18.60;44.10;;;;;;5093237;28;20447;-63
2023/02/08 02:10:27;;;;;;;14.83;14.33;;;18.60;44.20;;;;;;5092956;28;20500;-64
2023/02/08 02:12:56;;;;;;;14.20;13.80;;;18.60;44.20;;;;;;5108937;28;20461;-63
2023/02/08 02:15:23;;;;;;;15.10;14.50;;;18.60;44.20;;;;;;5113479;28;20454;-63
2023/02/08 02:17:51;;;;;;;14.97;14.37;;;18.60;44.30;;;;;;5113430;28;20463;-63
2023/02/08 02:20:24;;;;;;;13.83;13.33;;;18.60;44.20;;;;;;5113133;28;20449;-63
2023/02/08 02:23:36;;;;;;;14.30;13.80;;;18.70;44.40;;;;;;5097439;28;20971;-64
2023/02/08 02:26:42;;;;;;;13.33;12.93;;;18.70;44.30;;;;;;5096390;28;20445;-64
2023/02/08 02:29:36;;;;;;;14.20;13.77;;;18.60;44.20;;;;;;5092722;28;20437;-63
2023/02/08 02:32:24;;;;;;;15.13;14.43;;;18.60;44.70;;;;;;5100969;28;20449;-63
2023/02/08 02:34:58;;;;;;;14.23;13.73;;;18.60;44.20;;;;;;5113155;28;20452;-64
2023/02/08 02:37:40;;;;;;;13.80;13.40;;;18.60;44.20;;;;;;5113010;28;20461;-64
2023/02/08 02:40:20;;;;;;;14.43;13.93;;;18.60;44.20;;;;;;5106489;28;20537;-63
2023/02/08 02:45:48;;;;;;;14.43;13.90;;;18.60;44.20;;;;;;5092779;28;20426;-63
2023/02/08 02:48:24;;;;;;;14.33;13.73;;;18.60;44.10;;;;;;5092473;28;20442;-63
2023/02/08 02:50:57;;;;;;;14.40;13.90;;;18.60;44.10;;;;;;5103871;28;20483;-63
2023/02/08 02:53:32;;;;;;;14.77;14.27;;;18.60;44.00;;;;;;5112705;28;20821;-64
2023/02/08 02:56:03;;;;;;;15.17;14.60;;;18.60;44.10;;;;;;5112625;28;20532;-64
2023/02/08 02:58:31;;;;;;;14.23;13.70;;;18.60;44.00;;;;;;5112600;28;20453;-64
2023/02/08 03:00:59;;;;;;;14.10;13.60;;;18.50;43.90;;;;;;5098685;28;20447;-64
2023/02/08 03:03:30;;;;;;;14.83;14.27;;;18.50;43.90;;;;;;5099257;28;20544;-64
2023/02/08 03:06:00;;;;;;;14.80;14.20;;;18.50;43.90;;;;;;5112529;28;20456;-64
2023/02/08 03:08:54;;;;;;;13.97;13.47;;;18.50;43.80;;;;;;5112594;28;20446;-64
2023/02/08 03:11:24;;;;;;;13.87;13.40;;;18.50;43.80;;;;;;5096618;28;20482;-64
2023/02/08 03:14:12;;;;;;;14.20;13.70;;;18.50;43.80;;;;;;5092075;28;20809;-64
2023/02/08 03:16:57;;;;;;;14.07;13.47;;;18.40;43.70;;;;;;5092175;28;20453;-64
2023/02/08 03:19:32;;;;;;;15.47;14.87;;;18.40;43.80;;;;;;5091840;28;20450;-64
2023/02/08 03:22:04;;;;;;;14.20;13.70;;;18.40;43.80;;;;;;5112054;28;20475;-64
2023/02/08 03:24:39;;;;;;;15.17;14.47;;;18.40;43.80;;;;;;5112424;28;20525;-63
2023/02/08 03:27:14;;;;;;;14.67;14.10;;;18.40;43.90;;;;;;5112617;28;20440;-62
2023/02/08 03:29:48;;;;;;;15.37;14.67;;;18.40;44.00;;;;;;5111156;28;20464;-64
2023/02/08 03:32:20;;;;;;;15.20;14.70;;;18.50;44.10;;;;;;5091763;28;20500;-63
2023/02/08 03:34:53;;;;;;;14.60;14.10;;;18.40;44.60;;;;;;5091942;28;20453;-63
2023/02/08 03:37:24;;;;;;;14.80;14.30;;;18.50;44.20;;;;;;5091882;28;20445;-63
2023/02/08 03:39:56;;;;;;;15.47;14.97;;;18.50;44.10;;;;;;5093325;28;20450;-64
2023/02/08 03:42:26;;;;;;;14.00;13.57;;;18.50;44.10;;;;;;5112272;28;20958;-62
2023/02/08 03:44:58;;;;;;;14.30;13.90;;;18.50;44.10;;;;;;5112106;28;20930;-63
2023/02/08 03:47:28;;;;;;;15.50;14.63;;;18.50;44.10;;;;;;5112015;28;20437;-63
2023/02/08 03:50:00;;;;;;;16.03;15.40;;;18.50;44.10;;;;;;5111464;28;20931;-63
2023/02/08 03:52:30;;;;;;;15.07;14.57;;;18.50;44.10;;;;;;5111964;28;20461;-63
2023/02/08 03:55:01;;;;;;;15.67;15.07;;;18.50;44.10;;;;;;5111905;28;20455;-63
2023/02/08 03:57:32;;;;;;;15.47;14.87;;;18.50;44.00;;;;;;5112263;28;20452;-60
2023/02/08 04:00:01;;;;;;;14.57;14.07;;;18.50;44.00;;;;;;5109080;28;20723;-62
2023/02/08 04:02:31;;;;;;;14.97;14.37;;;18.50;44.60;;;;;;5091426;28;20963;-62
2023/02/08 04:05:01;;;;;;;14.00;13.40;;;18.50;44.00;;;;;;5092610;28;20965;-61
2023/02/08 04:07:28;;;;;;;14.63;14.13;;;18.50;44.00;;;;;;5091788;28;20445;-63
2023/02/08 04:09:55;;;;;;;14.53;14.03;;;18.40;43.90;;;;;;5092276;28;20449;-61
2023/02/08 04:12:21;;;;;;;14.07;13.67;;;18.40;43.90;;;;;;5108734;28;20567;-63
2023/02/08 04:14:48;;;;;;;14.10;13.60;;;18.40;43.80;;;;;;5115712;28;20444;-60
2023/02/08 04:17:15;;;;;;;14.77;14.27;;;18.40;43.80;;;;;;5115720;28;20545;-62
2023/02/08 04:19:42;;;;;;;14.80;14.30;;;18.40;43.80;;;;;;5115443;28;20863;-63
2023/02/08 04:22:10;;;;;;;15.80;15.20;;;18.40;43.80;;;;;;5114757;28;20825;-62
2023/02/08 04:24:37;;;;;;;15.67;15.07;;;18.30;43.70;;;;;;5115943;28;20536;-62
2023/02/08 04:27:04;;;;;;;14.47;13.97;;;18.30;43.70;;;;;;5115500;28;20481;-61
2023/02/08 04:29:31;;;;;;;15.23;14.70;;;18.30;43.70;;;;;;5112318;28;20448;-63
2023/02/08 04:31:58;;;;;;;14.40;13.97;;;18.30;43.70;;;;;;5094835;28;20584;-63
2023/02/08 04:34:26;;;;;;;14.03;13.63;;;18.30;43.60;;;;;;5094982;28;20450;-64
2023/02/08 04:36:53;;;;;;;15.67;14.90;;;18.30;43.70;;;;;;5094947;28;20450;-64
2023/02/08 04:39:21;;;;;;;14.57;14.07;;;18.30;43.70;;;;;;5095251;28;20442;-63
2023/02/08 04:41:48;;;;;;;15.03;14.47;;;18.30;43.70;;;;;;5115193;28;20544;-63
2023/02/08 04:44:14;;;;;;;14.97;14.37;;;18.30;43.70;;;;;;5115157;28;20954;-63
2023/02/08 04:46:41;;;;;;;14.67;14.27;;;18.30;43.80;;;;;;5115166;28;20441;-63
2023/02/08 04:49:08;;;;;;;15.10;14.60;;;18.30;43.80;;;;;;5101567;28;20544;-62
2023/02/08 04:51:35;;;;;;;15.13;14.53;;;18.30;43.90;;;;;;5094408;28;20486;-63
2023/02/08 04:54:01;;;;;;;15.47;14.97;;;18.30;44.00;;;;;;5094629;28;20450;-62
2023/02/08 04:56:30;;;;;;;14.50;14.00;;;18.30;44.00;;;;;;5094632;28;20438;-64
2023/02/08 04:58:56;;;;;;;14.53;13.93;;;18.30;44.00;;;;;;5105523;28;20444;-63
2023/02/08 05:01:23;;;;;;;15.57;14.97;;;18.30;44.00;;;;;;5114772;28;20554;-61
2023/02/08 05:03:50;;;;;;;14.77;14.33;;;18.30;44.00;;;;;;5115003;28;20448;-61
2023/02/08 05:06:17;;;;;;;14.67;14.17;;;18.30;44.50;;;;;;5114782;28;20437;-62
2023/02/08 05:08:44;;;;;;;14.73;14.13;;;18.30;44.00;;;;;;5105909;28;20549;-64
2023/02/08 05:11:10;;;;;;;15.97;15.47;;;18.30;44.00;;;;;;5105153;28;20472;-62
2023/02/08 05:13:39;;;;;;;14.90;14.30;;;18.40;44.10;;;;;;5114713;28;20457;-64
2023/02/08 05:16:06;;;;;;;15.23;14.70;;;18.30;44.00;;;;;;5114811;28;20448;-64
2023/02/08 05:18:32;;;;;;;14.40;13.90;;;18.30;44.00;;;;;;5106853;28;20449;-62
2023/02/08 05:21:02;;;;;;;14.23;13.83;;;18.30;44.00;;;;;;5093636;28;20439;-62
2023/02/08 05:23:30;;;;;;;13.47;13.07;;;18.30;44.00;;;;;;5094302;28;20447;-59
2023/02/08 05:25:58;;;;;;;15.13;14.63;;;18.30;44.00;;;;;;5093230;28;20450;-58
2023/02/08 05:28:24;;;;;;;14.63;14.13;;;18.20;44.20;;;;;;5098212;28;20524;-58
2023/02/08 05:30:53;;;;;;;15.27;14.77;;;18.10;44.50;;;;;;5093634;28;20470;-56
2023/02/08 05:33:19;;;;;;;14.57;14.07;;;18.10;44.70;;;;;;5094179;28;20557;-55
2023/02/08 05:35:46;;;;;;;14.87;14.37;;;18.00;44.80;;;;;;5093844;28;21003;-54
2023/02/08 05:38:13;;;;;;;14.43;14.03;;;18.10;44.90;;;;;;5094847;28;20441;-54
2023/02/08 05:40:40;;;;;;;14.30;13.80;;;18.00;44.90;;;;;;5093555;28;20525;-56
2023/02/08 05:43:07;;;;;;;14.83;14.13;;;18.00;44.90;;;;;;5093754;28;20462;-56
2023/02/08 05:45:33;;;;;;;13.67;13.17;;;18.10;44.80;;;;;;5093733;28;20446;-56
2023/02/08 05:48:02;;;;;;;15.57;14.97;;;18.10;44.70;;;;;;5095450;28;20541;-53
2023/02/08 05:50:30;;;;;;;16.03;14.50;;;18.10;44.90;;;;;;5113694;28;20562;-53
2023/02/08 05:52:57;;;;;;;15.90;14.53;;;18.10;45.20;;;;;;5113724;28;20563;-53
2023/02/08 05:55:25;;;;;;;17.10;15.67;;;18.10;45.70;;;;;;5113737;28;20452;-57
2023/02/08 05:57:52;;;;;;;17.27;15.93;;;18.10;46.50;;;;;;5112885;28;20541;-53
2023/02/08 06:00:19;;;;;;;21.30;19.10;;;18.10;47.30;;;;;;5092976;28;20434;-57
2023/02/08 06:02:46;;;;;;;17.63;16.23;;;18.10;47.90;;;;;;5093221;28;20458;-58
2023/02/08 06:05:15;;;;;;;18.97;17.30;;;18.10;49.10;;;;;;5093233;28;20530;-57
2023/02/08 06:07:41;;;;;;;16.30;15.40;;;18.10;49.30;;;;;;5093139;28;20465;-56
2023/02/08 06:10:09;;;;;;;15.60;14.47;;;18.10;49.70;;;;;;5112142;28;20540;-59
2023/02/08 06:12:35;;;;;;;15.63;14.63;;;18.10;49.80;;;;;;5113382;28;20846;-56
2023/02/08 06:15:02;;;;;;;16.53;15.63;;;18.20;49.80;;;;;;5113380;28;20441;-59
2023/02/08 06:17:29;;;;;;;15.17;14.23;;;18.20;49.80;;;;;;5094688;28;20537;-57
2023/02/08 06:19:56;;;;;;;16.93;15.70;;;18.20;49.70;;;;;;5092802;28;20443;-57
2023/02/08 06:22:24;;;;;;;18.47;17.37;;;18.30;49.60;;;;;;5092689;28;21040;-57
2023/02/08 06:24:51;;;;;;;16.40;15.50;;;18.30;49.40;;;;;;5092786;28;20542;-57
2023/02/08 06:27:18;;;;;;;16.20;15.30;;;18.30;49.30;;;;;;5109008;28;20796;-54
2023/02/08 06:29:44;;;;;;;17.00;15.50;;;18.30;49.10;;;;;;5112861;28;20448;-56
2023/02/08 06:32:11;;;;;;;18.07;16.17;;;18.40;49.00;;;;;;5112920;28;20477;-58
2023/02/08 06:34:38;;;;;;;16.83;15.47;;;18.30;48.80;;;;;;5113142;28;20568;-58
2023/02/08 06:37:05;;;;;;;15.40;14.80;;;18.30;48.60;;;;;;5098054;28;20728;-56
2023/02/08 06:39:33;;;;;;;17.10;16.17;;;18.30;48.50;;;;;;5092490;28;20549;-56
2023/02/08 06:42:00;;;;;;;17.40;15.80;;;18.30;48.40;;;;;;5092633;28;20546;-54
2023/02/08 06:44:27;;;;;;;16.87;15.80;;;18.30;48.30;;;;;;5092565;28;20529;-57
2023/02/08 06:46:53;;;;;;;16.03;15.13;;;18.30;48.20;;;;;;5104832;28;20448;-57
2023/02/08 06:49:20;;;;;;;16.87;15.30;;;18.30;48.00;;;;;;5112556;28;20451;-58
2023/02/08 06:51:47;;;;;;;15.73;14.83;;;18.30;47.90;;;;;;5105430;28;20895;-54
2023/02/08 06:54:14;;;;;;;13.63;12.90;;;18.30;47.80;;;;;;5092424;28;20543;-56
2023/02/08 06:56:43;;;;;;;15.20;14.20;;;18.30;47.70;;;;;;5102429;28;20817;-56
2023/02/08 06:59:09;;;;;;;15.07;13.83;;;18.30;47.60;;;;;;5112540;28;20437;-54
2023/02/08 07:01:36;;;;;;;15.67;14.87;;;18.30;47.50;;;;;;5112570;28;20962;-56
2023/02/08 07:04:03;;;;;;;15.40;14.50;;;18.30;47.40;;;;;;5112509;28;20445;-57
2023/02/08 07:06:30;;;;;;;15.47;14.33;;;18.20;47.20;;;;;;5103465;28;20445;-57
2023/02/08 07:08:57;;;;;;;16.10;15.03;;;18.20;47.10;;;;;;5092047;28;20814;-54
2023/02/08 07:11:24;;;;;;;13.90;13.20;;;18.20;47.10;;;;;;5091846;28;20486;-58
2023/02/08 07:13:53;;;;;;;13.97;13.37;;;18.20;47.00;;;;;;5092068;28;20449;-57
2023/02/08 07:16:21;;;;;;;13.60;12.90;;;18.20;46.90;;;;;;5112481;28;20446;-54
2023/02/08 07:18:48;;;;;;;13.90;13.00;;;18.20;46.90;;;;;;5112164;28;20467;-57
2023/02/08 07:21:15;;;;;;;16.03;14.80;;;18.20;46.80;;;;;;5112134;28;20558;-54
2023/02/08 07:23:42;;;;;;;14.67;14.00;;;18.20;46.80;;;;;;5097586;28;20453;-58
2023/02/08 07:26:11;;;;;;;13.83;12.97;;;18.20;46.70;;;;;;5091737;28;20442;-57
2023/02/08 07:28:38;;;;;;;14.77;13.50;;;18.10;46.70;;;;;;5091765;28;20454;-56
2023/02/08 07:31:08;;;;;;;15.30;14.20;;;18.10;46.60;;;;;;5091604;28;20525;-56
2023/02/08 07:33:35;;;;;;;14.73;13.93;;;18.10;46.50;;;;;;5104450;28;20469;-58
2023/02/08 07:36:04;;;;;;;14.73;13.67;;;18.10;46.50;;;;;;5112013;28;20442;-54
2023/02/08 07:38:31;;;;;;;15.30;14.27;;;18.10;47.00;;;;;;5112152;28;20441;-56
2023/02/08 07:41:01;;;;;;;14.53;13.87;;;18.10;46.50;;;;;;5111831;28;20453;-57
2023/02/08 07:43:28;;;;;;;13.00;12.20;;;18.10;46.40;;;;;;5100197;28;20443;-57
2023/02/08 07:45:55;;;;;;;14.20;13.53;;;18.10;46.40;;;;;;5091630;28;20450;-58
2023/02/08 07:48:23;;;;;;;14.27;13.20;;;18.00;46.30;;;;;;5094007;28;20529;-56
2023/02/08 07:50:50;;;;;;;13.77;13.17;;;18.10;46.50;;;;;;5095594;28;20536;-58
2023/02/08 07:53:17;;;;;;;13.03;12.43;;;18.10;46.50;;;;;;5105369;28;20905;-58
2023/02/08 07:55:46;;;;;;;14.00;13.20;;;18.10;46.40;;;;;;5116182;28;20536;-59
2023/02/08 07:58:13;;;;;;;13.10;12.30;;;18.10;46.40;;;;;;5116133;28;20437;-57
2023/02/08 08:00:40;;;;;;;13.93;13.17;;;18.20;46.40;;;;;;5116106;28;20445;-57
2023/02/08 08:03:07;;;;;;;13.50;12.90;;;18.20;46.40;;;;;;5110056;28;20457;-58
2023/02/08 08:05:36;;;;;;;13.40;12.70;;;18.20;46.30;;;;;;5116053;28;20446;-57
2023/02/08 08:08:02;;;;;;;13.73;13.13;;;18.20;46.30;;;;;;5115817;28;20444;-55
2023/02/08 08:10:29;;;;;;;14.37;13.67;;;18.20;46.20;;;;;;5115700;28;20791;-54
2023/02/08 08:12:56;;;;;;;15.20;14.60;;;18.20;46.20;;;;;;5113942;28;20985;-55
2023/02/08 08:15:23;;;;;;;13.67;13.17;;;18.20;46.20;;;;;;5115739;28;20536;-56
2023/02/08 08:17:50;;;;;;;12.23;11.77;;;18.20;46.10;;;;;;5115681;28;21029;-58
2023/02/08 08:20:17;;;;;;;12.87;12.47;;;18.20;46.10;;;;;;5115443;28;20533;-57
2023/02/08 08:22:45;;;;;;;15.00;14.20;;;18.20;46.00;;;;;;5115363;28;20479;-60
2023/02/08 08:25:12;;;;;;;13.57;13.07;;;18.20;46.00;;;;;;5113935;28;20823;-59
2023/02/08 08:27:39;;;;;;;13.53;12.80;;;18.20;45.90;;;;;;5115520;28;20812;-58
2023/02/08 08:30:07;;;;;;;14.70;13.80;;;18.20;45.90;;;;;;5115299;28;21001;-59
2023/02/08 08:32:34;;;;;;;13.63;13.23;;;18.20;45.80;;;;;;5097132;28;20482;-57
2023/02/08 08:35:01;;;;;;;13.87;13.20;;;18.10;45.70;;;;;;5094957;28;20892;-56
2023/02/08 08:37:28;;;;;;;14.20;13.43;;;18.10;45.70;;;;;;5102141;28;20441;-59
2023/02/08 08:39:56;;;;;;;14.87;14.17;;;18.10;45.60;;;;;;5115110;28;20537;-54
2023/02/08 08:42:23;;;;;;;15.27;14.77;;;18.10;45.60;;;;;;5115179;28;20548;-57
2023/02/08 08:44:50;;;;;;;14.10;13.50;;;18.10;45.50;;;;;;5115311;28;20878;-54
2023/02/08 08:47:16;;;;;;;14.93;14.33;;;18.10;45.40;;;;;;5115128;28;20528;-59
2023/02/08 08:49:43;;;;;;;14.23;13.70;;;18.10;45.50;;;;;;5113234;28;20493;-57
2023/02/08 08:52:11;;;;;;;14.17;13.47;;;18.00;45.30;;;;;;5114881;28;20487;-54
2023/02/08 08:54:38;;;;;;;13.43;13.00;;;18.10;45.50;;;;;;5115022;28;20817;-53
2023/02/08 08:57:06;;;;;;;14.87;14.20;;;18.00;45.30;;;;;;5114173;28;20445;-54
2023/02/08 08:59:33;;;;;;;14.50;13.90;;;18.00;45.30;;;;;;5097054;28;20967;-55
2023/02/08 09:02:01;;;;;;;15.63;14.47;;;18.00;45.30;;;;;;5094389;28;20465;-55
2023/02/08 09:04:28;;;;;;;13.60;13.03;;;18.00;45.30;;;;;;5094328;28;20449;-57
2023/02/08 09:06:55;;;;;;;14.73;14.10;;;18.00;45.40;;;;;;5098465;28;20438;-57
2023/02/08 09:09:22;;;;;;;14.03;13.43;;;18.00;45.40;;;;;;5114579;28;20935;-55
2023/02/08 09:11:49;;;;;;;15.00;14.40;;;18.00;45.40;;;;;;5114509;28;20557;-55
2023/02/08 09:14:17;;;;;;;13.20;12.77;;;17.90;45.30;;;;;;5114684;28;20448;-54
2023/02/08 09:16:47;;;;;;;14.27;13.67;;;17.90;45.30;;;;;;5112832;28;20495;-58
2023/02/08 09:19:15;;;;;;;14.77;14.20;;;17.90;45.30;;;;;;5112380;28;20852;-57
2023/02/08 09:21:42;;;;;;;14.33;13.73;;;17.90;45.30;;;;;;5093799;28;20531;-55
2023/02/08 09:24:09;;;;;;;13.67;13.17;;;17.90;45.30;;;;;;5094099;28;20438;-54
2023/02/08 09:26:37;;;;;;;13.97;13.47;;;17.90;45.30;;;;;;5095147;28;20801;-57
2023/02/08 09:29:04;;;;;;;13.20;12.70;;;18.00;45.50;;;;;;5101838;28;20449;-56
2023/02/08 09:31:35;;;;;;;13.43;13.03;;;18.00;45.50;;;;;;5112383;28;20461;-54
2023/02/08 09:34:02;;;;;;;13.87;13.27;;;18.00;45.50;;;;;;5114353;28;20530;-55
2023/02/08 09:36:33;;;;;;;14.50;13.87;;;18.10;45.50;;;;;;5114244;28;20445;-57
2023/02/08 09:39:04;;;;;;;14.93;14.33;;;18.10;45.50;;;;;;5114095;28;20527;-57
2023/02/08 09:41:47;;;;;;;13.30;12.87;;;18.20;45.50;;;;;;5109029;28;20469;-58
2023/02/08 09:44:21;;;;;;;13.87;13.23;;;18.20;45.50;;;;;;5114115;28;20433;-53
2023/02/08 09:46:56;;;;;;;14.07;13.47;;;18.20;45.40;;;;;;5114165;28;20445;-56
2023/02/08 09:49:27;;;;;;;15.40;14.80;;;18.20;45.40;;;;;;5113796;28;20934;-58
2023/02/08 09:51:58;;;;;;;13.97;13.20;;;18.20;45.30;;;;;;5110339;28;20462;-56
2023/02/08 09:54:30;;;;;;;12.97;12.57;;;18.20;45.30;;;;;;5093609;28;20529;-58
2023/02/08 09:57:00;;;;;;;13.20;12.80;;;18.20;45.30;;;;;;5097866;28;20863;-58
2023/02/08 09:59:29;;;;;;;12.17;11.77;;;18.20;45.30;;;;;;5113713;28;20438;-58
2023/02/08 10:02:02;;;;;;;13.07;12.57;;;18.20;45.20;;;;;;5113588;28;20554;-60
2023/02/08 10:04:40;;;;;;;13.93;13.33;;;18.30;45.30;;;;;;5113699;28;20433;-59
2023/02/08 10:07:10;;;;;;;12.80;12.40;;;18.30;45.30;;;;;;5108470;28;20473;-57
2023/02/08 10:09:37;;;;;;;14.30;13.20;;;18.20;45.20;;;;;;5113252;28;20437;-57
2023/02/08 10:12:15;;;;;;;12.80;12.20;;;18.20;45.10;;;;;;5112855;28;20568;-55
2023/02/08 10:15:00;;;;;;;12.07;11.67;;;18.20;45.10;;;;;;5113452;28;20451;-57
2023/02/08 10:18:05;;;;;;;13.70;13.23;;;18.20;45.10;;;;;;5112935;28;20459;-57
2023/02/08 10:20:46;;;;;;;13.07;12.67;;;18.20;45.10;;;;;;5094125;28;20541;-54
2023/02/08 10:23:31;;;;;;;13.83;13.30;;;18.20;45.00;;;;;;5110218;28;20554;-53
2023/02/08 10:26:09;;;;;;;13.73;13.27;;;18.10;45.00;;;;;;5093385;28;20448;-54
2023/02/08 10:28:53;;;;;;;12.97;12.57;;;18.10;45.00;;;;;;5092332;28;20442;-54
2023/02/08 10:31:33;;;;;;;13.17;12.70;;;18.20;45.10;;;;;;5092596;28;20541;-54
2023/02/08 10:34:03;;;;;;;14.10;13.70;;;18.10;44.90;;;;;;5092353;28;20990;-54
2023/02/08 10:36:35;;;;;;;14.17;13.67;;;18.10;44.90;;;;;;5092664;28;20446;-56
2023/02/08 10:39:04;;;;;;;12.90;12.50;;;18.10;44.90;;;;;;5092429;28;20502;-57
2023/02/08 10:41:35;;;;;;;13.33;12.93;;;18.10;44.90;;;;;;5092501;28;20466;-54
2023/02/08 10:44:09;;;;;;;12.97;12.50;;;18.10;44.80;;;;;;5092565;28;20798;-56
2023/02/08 10:46:44;;;;;;;12.83;12.43;;;18.10;44.80;;;;;;5092461;28;20529;-57
2023/02/08 10:49:17;;;;;;;14.87;14.27;;;18.10;44.80;;;;;;5092466;28;20442;-53
2023/02/08 10:51:45;;;;;;;13.30;12.90;;;18.10;44.80;;;;;;5092326;28;21017;-54
2023/02/08 10:54:13;;;;;;;14.50;14.00;;;18.00;44.60;;;;;;5092289;28;21040;-56
2023/02/08 10:56:47;;;;;;;13.10;12.70;;;18.00;44.70;;;;;;5092297;28;20447;-55
2023/02/08 10:59:21;;;;;;;13.47;13.07;;;18.00;44.60;;;;;;5092164;28;20450;-56
2023/02/08 11:01:49;;;;;;;13.77;13.27;;;18.10;44.80;;;;;;5092446;28;20463;-54
2023/02/08 11:04:17;;;;;;;13.77;13.37;;;18.10;44.80;;;;;;5092265;28;20445;-53
2023/02/08 11:06:46;;;;;;;14.97;14.40;;;18.10;44.90;;;;;;5092151;28;20942;-54
2023/02/08 11:09:22;;;;;;;15.20;14.70;;;18.10;44.90;;;;;;5091935;28;20969;-56
2023/02/08 11:11:51;;;;;;;13.93;13.53;;;18.10;44.80;;;;;;5091967;28;20540;-53
2023/02/08 11:14:20;;;;;;;13.30;12.90;;;18.20;44.90;;;;;;5092054;28;20478;-55
2023/02/08 11:16:52;;;;;;;14.30;13.80;;;18.20;44.90;;;;;;5091760;28;20455;-56
2023/02/08 11:19:32;;;;;;;12.87;12.47;;;18.20;44.80;;;;;;5091786;28;20903;-57
2023/02/08 11:22:04;;;;;;;13.80;13.40;;;18.20;44.80;;;;;;5091482;28;20478;-53
2023/02/08 11:24:38;;;;;;;13.13;12.73;;;18.30;44.80;;;;;;5092031;28;20528;-53
2023/02/08 11:27:16;;;;;;;13.70;13.17;;;18.30;44.70;;;;;;5091950;28;20441;-54
2023/02/08 11:29:43;;;;;;;13.90;13.40;;;18.30;44.70;;;;;;5091520;28;20446;-58
2023/02/08 11:32:17;;;;;;;14.20;13.77;;;18.30;44.70;;;;;;5091757;28;20963;-54
2023/02/08 11:34:45;;;;;;;13.73;13.33;;;18.30;44.70;;;;;;5091720;28;20484;-53
2023/02/08 11:37:22;;;;;;;13.17;12.77;;;18.30;44.60;;;;;;5091726;28;20442;-54
2023/02/08 11:39:53;;;;;;;13.63;13.23;;;18.30;44.60;;;;;;5091510;28;20477;-57
2023/02/08 11:42:22;;;;;;;13.60;13.03;;;18.30;44.60;;;;;;5091708;28;20470;-55
2023/02/08 11:44:50;;;;;;;13.27;12.77;;;18.30;44.50;;;;;;5092102;28;20445;-55
2023/02/08 11:47:23;;;;;;;13.43;12.97;;;18.30;44.50;;;;;;5091673;28;20443;-57
2023/02/08 11:49:52;;;;;;;13.50;12.97;;;18.30;44.50;;;;;;5091435;28;20446;-53
2023/02/08 11:52:24;;;;;;;14.27;13.77;;;18.30;44.50;;;;;;5091516;28;20473;-56
2023/02/08 11:54:52;;;;;;;14.33;13.83;;;18.30;44.50;;;;;;5091751;28;20479;-52
2023/02/08 11:57:21;;;;;;;12.97;12.50;;;18.30;44.40;;;;;;5091594;28;20477;-56
2023/02/08 11:59:49;;;;;;;12.70;12.30;;;18.30;44.40;;;;;;5091241;28;20468;-55
2023/02/08 12:02:28;;;;;;;13.03;12.60;;;18.30;44.40;;;;;;5091745;28;20800;-54
2023/02/08 12:04:55;;;;;;;13.17;12.77;;;18.30;44.40;;;;;;5091838;28;20446;-56
2023/02/08 12:07:30;;;;;;;13.53;13.20;;;18.30;44.30;;;;;;5092028;28;20446;-56
2023/02/08 12:10:38;;;;;;;12.80;12.40;;;18.30;44.40;;;;;;5091536;28;20453;-53
2023/02/08 12:13:37;;;;;;;13.93;13.43;;;18.30;44.30;;;;;;5087784;28;21005;-54
2023/02/08 12:16:17;;;;;;;13.80;13.40;;;18.30;44.30;;;;;;5091816;28;20446;-55
2023/02/08 12:19:04;;;;;;;13.30;12.90;;;18.30;44.30;;;;;;5091800;28;20452;-57
2023/02/08 12:21:38;;;;;;;14.37;13.67;;;18.30;44.30;;;;;;5075249;28;20492;-53
2023/02/08 12:24:17;;;;;;;14.23;13.83;;;18.30;44.30;;;;;;5091667;28;20444;-57
2023/02/08 12:27:00;;;;;;;13.67;13.23;;;18.30;44.30;;;;;;5091618;28;20783;-56
2023/02/08 12:29:40;;;;;;;14.33;13.83;;;18.30;44.30;;;;;;5091280;28;20533;-56
2023/02/08 12:32:29;;;;;;;12.93;12.53;;;18.30;44.30;;;;;;5091439;28;20468;-59
2023/02/08 12:35:17;;;;;;;13.20;12.80;;;18.30;44.30;;;;;;5094718;28;20480;-56
2023/02/08 12:40:52;;;;;;;12.50;12.20;;;18.20;44.10;;;;;;5095176;28;20434;-53
2023/02/08 12:43:36;;;;;;;13.00;12.60;;;18.30;44.20;;;;;;5095265;28;20473;-54
2023/02/08 12:46:26;;;;;;;13.70;13.30;;;18.20;44.10;;;;;;5094867;28;20442;-53
2023/02/08 12:49:14;;;;;;;13.70;13.20;;;18.30;44.20;;;;;;5094934;28;20446;-57
2023/02/08 12:51:48;;;;;;;13.50;13.10;;;18.20;44.10;;;;;;5094694;28;20469;-57